Pagina principale
METAR-TAF:

METAR-TAF

Aeroporti :

Bruxelles, Belgio

Aeroporto di Bruxelles-National. Zaventem

latitudine: 50-54N, longitudine: 004-32E, altezza: 55 m

Osservazione

Il bollettino è stato emesso 28 minuti fa, alle 13:20 UTC
Vento 16 kt da est con raffiche fino a 28 kt
Temperature 5°C
Umidità 28%
Pressione 1021 hPa
Visibilità 10 km o più
nessuna nube inferiore a 1500 m e nessun cumulonembo

METAR: EBBR 241320Z 09016G28KT CAVOK 05/M12 Q1021 NOSIG

Ora: 14:48 (13:48 UTC)

Previsione

Il bollettino è stato emesso 2 ore e 38 minuti fa, alle 11:10 UTC
Previsione valida dal 24 alle 12 UTC al 25 alle 18 UTC
Vento 12 kt da est/nord-est
Visibilità 10 km o più
nessuna nube inferiore a 1500 m e nessun cumulonembo
Probabilità 40% :
Temporaneamente
dal 24 alle 12 UTC al 24 alle 16 UTC
Vento 15 kt da est/nord-est con raffiche fino a 25 kt

TAF: EBBR 241110Z 2412/2518 07012KT CAVOK PROB40 TEMPO 2412/2416 07015G25KT

Osservazioni e previsioni meteorologiche di più di 4000 aeroporti (messaggi METAR e TAF).

Le stazioni disponibili sono rappresentate dai dischi gialli e rossi sulla carta.

Puntare il mouse per vedere il nome della stazione.

Clicca sopra per visualizzare le osservazioni e previsioni meteorologiche.

Per cambiare la mappa : fare clic sui pulsanti verdi con una croce nera per ingrandire, il pulsante verde con un trattino per diminuire, o sulla freccia verde per le mappe adiacenti.


METAR-TAF: